Buyck, Minnesota
Current Conditions -  °F | °C
As of 3:33 PM on Wednesday 17 Dec 2014 (Local Time) from KORB Reporting Station
Clear Clear  
Wind Chill: 19°   Ceiling: Unl
Heat Index: 19°   Visibility: 10mi
Dew Point:   Wind: 0mph
Humidity: 63%   Direction: NA
Pressure: 30.25"   Gusts: NA
Location:  48.1455°N, 92.8504°W
Report Text: KORB 172133Z AUTO 00000KT 10SM CLR M07/M13 A3025 RMK AO2
Loading
Personal Weather Stations






























Interactive Weather Map New forecast layout! Learn more

10-Day Weather Forecast

Advertisements
Track Severe Weather on mobile